TAF Text Data
IDs:
Format:
Raw Decoded Include METAR

Data at: 0459 UTC 31 May 2023

RJBB 310430Z 26004KT 9999 FEW015 SCT080 OVC120 20/17 Q1012 NOSIG

TAF AMD RJBB 310304Z 3103/0106 29005KT 9999 FEW015 SCT050
  BECMG 3110/3112 06006KT
  BECMG 0100/0103 30004KT